sensor_id;sensor_type;location;lat;lon;timestamp;P1;durP1;ratioP1;P2;durP2;ratioP2
19826;SDS011;10074;52.018;4.726;2023-08-24T00:03:03;0.68;;;0.68;;
19826;SDS011;10074;52.018;4.726;2023-08-24T00:08:04;4.60;;;0.73;;
19826;SDS011;10074;52.018;4.726;2023-08-24T00:13:05;1.45;;;1.20;;
19826;SDS011;10074;52.018;4.726;2023-08-24T00:18:06;0.88;;;0.70;;
19826;SDS011;10074;52.018;4.726;2023-08-24T00:23:06;0.88;;;0.43;;
19826;SDS011;10074;52.018;4.726;2023-08-24T00:28:07;1.30;;;1.20;;
19826;SDS011;10074;52.018;4.726;2023-08-24T00:33:07;1.00;;;0.75;;
19826;SDS011;10074;52.018;4.726;2023-08-24T00:38:07;0.88;;;0.82;;
19826;SDS011;10074;52.018;4.726;2023-08-24T00:43:08;1.03;;;0.70;;
19826;SDS011;10074;52.018;4.726;2023-08-24T00:48:08;0.60;;;0.60;;
19826;SDS011;10074;52.018;4.726;2023-08-24T00:53:09;1.13;;;0.98;;
19826;SDS011;10074;52.018;4.726;2023-08-24T00:58:09;1.10;;;0.80;;
19826;SDS011;10074;52.018;4.726;2023-08-24T01:03:10;1.13;;;0.70;;
19826;SDS011;10074;52.018;4.726;2023-08-24T01:08:10;2.28;;;0.70;;
19826;SDS011;10074;52.018;4.726;2023-08-24T01:13:11;0.85;;;0.60;;
19826;SDS011;10074;52.018;4.726;2023-08-24T01:18:21;1.05;;;0.98;;
19826;SDS011;10074;52.018;4.726;2023-08-24T01:23:32;1.65;;;0.63;;
19826;SDS011;10074;52.018;4.726;2023-08-24T01:28:38;1.85;;;0.60;;
19826;SDS011;10074;52.018;4.726;2023-08-24T01:33:39;1.00;;;0.50;;
19826;SDS011;10074;52.018;4.726;2023-08-24T01:38:40;1.20;;;0.73;;
19826;SDS011;10074;52.018;4.726;2023-08-24T01:43:41;0.90;;;0.80;;
19826;SDS011;10074;52.018;4.726;2023-08-24T01:48:45;0.75;;;0.65;;
19826;SDS011;10074;52.018;4.726;2023-08-24T01:53:45;1.38;;;0.60;;
19826;SDS011;10074;52.018;4.726;2023-08-24T01:58:47;0.82;;;0.73;;
19826;SDS011;10074;52.018;4.726;2023-08-24T02:03:47;2.08;;;1.90;;
19826;SDS011;10074;52.018;4.726;2023-08-24T02:08:48;1.00;;;0.60;;
19826;SDS011;10074;52.018;4.726;2023-08-24T02:13:48;0.98;;;0.60;;
19826;SDS011;10074;52.018;4.726;2023-08-24T02:18:48;1.52;;;0.65;;
19826;SDS011;10074;52.018;4.726;2023-08-24T02:23:48;1.10;;;0.93;;
19826;SDS011;10074;52.018;4.726;2023-08-24T02:28:49;3.83;;;1.88;;
19826;SDS011;10074;52.018;4.726;2023-08-24T02:33:49;3.05;;;1.73;;
19826;SDS011;10074;52.018;4.726;2023-08-24T02:38:49;1.75;;;0.95;;
19826;SDS011;10074;52.018;4.726;2023-08-24T02:43:50;0.60;;;0.60;;
19826;SDS011;10074;52.018;4.726;2023-08-24T02:48:50;0.73;;;0.63;;
19826;SDS011;10074;52.018;4.726;2023-08-24T02:53:50;0.68;;;0.65;;
19826;SDS011;10074;52.018;4.726;2023-08-24T02:58:51;0.90;;;0.70;;
19826;SDS011;10074;52.018;4.726;2023-08-24T03:03:52;0.85;;;0.82;;
19826;SDS011;10074;52.018;4.726;2023-08-24T03:08:53;1.23;;;0.70;;
19826;SDS011;10074;52.018;4.726;2023-08-24T03:13:53;3.40;;;1.55;;
19826;SDS011;10074;52.018;4.726;2023-08-24T03:18:54;1.10;;;0.90;;
19826;SDS011;10074;52.018;4.726;2023-08-24T03:23:54;3.50;;;1.95;;
19826;SDS011;10074;52.018;4.726;2023-08-24T03:28:55;0.75;;;0.75;;
19826;SDS011;10074;52.018;4.726;2023-08-24T03:33:55;1.60;;;1.50;;
19826;SDS011;10074;52.018;4.726;2023-08-24T03:38:56;0.85;;;0.77;;
19826;SDS011;10074;52.018;4.726;2023-08-24T03:43:56;4.30;;;2.07;;
19826;SDS011;10074;52.018;4.726;2023-08-24T03:48:56;0.88;;;0.77;;
19826;SDS011;10074;52.018;4.726;2023-08-24T03:53:57;1.17;;;0.80;;
19826;SDS011;10074;52.018;4.726;2023-08-24T03:58:57;0.70;;;0.70;;
19826;SDS011;10074;52.018;4.726;2023-08-24T04:03:57;0.90;;;0.68;;
19826;SDS011;10074;52.018;4.726;2023-08-24T04:08:58;0.70;;;0.68;;
19826;SDS011;10074;52.018;4.726;2023-08-24T04:13:58;0.73;;;0.67;;
19826;SDS011;10074;52.018;4.726;2023-08-24T04:18:58;1.27;;;0.82;;
19826;SDS011;10074;52.018;4.726;2023-08-24T04:23:59;1.85;;;1.40;;
19826;SDS011;10074;52.018;4.726;2023-08-24T04:28:59;2.17;;;1.55;;
19826;SDS011;10074;52.018;4.726;2023-08-24T04:33:59;1.65;;;1.52;;
19826;SDS011;10074;52.018;4.726;2023-08-24T04:39:00;1.55;;;1.45;;
19826;SDS011;10074;52.018;4.726;2023-08-24T04:44:00;2.90;;;0.77;;
19826;SDS011;10074;52.018;4.726;2023-08-24T04:49:00;1.30;;;1.00;;
19826;SDS011;10074;52.018;4.726;2023-08-24T04:54:01;0.93;;;0.82;;
19826;SDS011;10074;52.018;4.726;2023-08-24T04:59:01;2.42;;;1.20;;
19826;SDS011;10074;52.018;4.726;2023-08-24T05:04:02;1.65;;;1.55;;
19826;SDS011;10074;52.018;4.726;2023-08-24T05:09:03;1.27;;;0.85;;
19826;SDS011;10074;52.018;4.726;2023-08-24T05:14:03;2.08;;;1.60;;
19826;SDS011;10074;52.018;4.726;2023-08-24T05:19:04;2.55;;;0.88;;
19826;SDS011;10074;52.018;4.726;2023-08-24T05:24:05;2.97;;;0.77;;
19826;SDS011;10074;52.018;4.726;2023-08-24T05:29:05;1.48;;;1.20;;
19826;SDS011;10074;52.018;4.726;2023-08-24T05:34:06;3.60;;;1.40;;
19826;SDS011;10074;52.018;4.726;2023-08-24T05:39:06;1.65;;;0.82;;
19826;SDS011;10074;52.018;4.726;2023-08-24T05:44:07;1.02;;;1.02;;
19826;SDS011;10074;52.018;4.726;2023-08-24T05:49:07;0.70;;;0.70;;
19826;SDS011;10074;52.018;4.726;2023-08-24T05:54:08;1.10;;;1.00;;
19826;SDS011;10074;52.018;4.726;2023-08-24T05:59:08;1.20;;;1.10;;
19826;SDS011;10074;52.018;4.726;2023-08-24T06:04:08;1.30;;;1.02;;
19826;SDS011;10074;52.018;4.726;2023-08-24T06:09:09;5.45;;;1.42;;
19826;SDS011;10074;52.018;4.726;2023-08-24T06:14:10;4.32;;;1.10;;
19826;SDS011;10074;52.018;4.726;2023-08-24T06:19:10;1.88;;;0.65;;
19826;SDS011;10074;52.018;4.726;2023-08-24T06:24:10;1.17;;;1.10;;
19826;SDS011;10074;52.018;4.726;2023-08-24T06:29:11;1.90;;;0.97;;
19826;SDS011;10074;52.018;4.726;2023-08-24T06:34:11;1.70;;;1.08;;
19826;SDS011;10074;52.018;4.726;2023-08-24T06:39:11;3.70;;;0.80;;
19826;SDS011;10074;52.018;4.726;2023-08-24T06:44:11;0.80;;;0.70;;
19826;SDS011;10074;52.018;4.726;2023-08-24T06:49:12;1.40;;;1.10;;
19826;SDS011;10074;52.018;4.726;2023-08-24T06:54:13;2.28;;;1.38;;
19826;SDS011;10074;52.018;4.726;2023-08-24T06:59:14;1.35;;;1.08;;
19826;SDS011;10074;52.018;4.726;2023-08-24T07:04:15;2.30;;;1.30;;
19826;SDS011;10074;52.018;4.726;2023-08-24T07:09:15;1.60;;;1.20;;
19826;SDS011;10074;52.018;4.726;2023-08-24T07:14:16;1.27;;;0.77;;
19826;SDS011;10074;52.018;4.726;2023-08-24T07:19:16;2.00;;;1.45;;
19826;SDS011;10074;52.018;4.726;2023-08-24T07:24:16;1.38;;;1.27;;
19826;SDS011;10074;52.018;4.726;2023-08-24T07:29:19;1.42;;;0.82;;
19826;SDS011;10074;52.018;4.726;2023-08-24T07:34:20;2.00;;;1.67;;
19826;SDS011;10074;52.018;4.726;2023-08-24T07:39:22;2.60;;;1.05;;
19826;SDS011;10074;52.018;4.726;2023-08-24T07:44:22;1.13;;;1.07;;
19826;SDS011;10074;52.018;4.726;2023-08-24T07:49:22;1.70;;;1.60;;
19826;SDS011;10074;52.018;4.726;2023-08-24T07:54:23;1.38;;;1.15;;
19826;SDS011;10074;52.018;4.726;2023-08-24T07:59:23;1.27;;;1.03;;
19826;SDS011;10074;52.018;4.726;2023-08-24T08:04:23;3.10;;;1.50;;
19826;SDS011;10074;52.018;4.726;2023-08-24T08:09:24;1.40;;;1.10;;
19826;SDS011;10074;52.018;4.726;2023-08-24T08:14:25;1.40;;;1.30;;
19826;SDS011;10074;52.018;4.726;2023-08-24T08:19:26;1.20;;;1.10;;
19826;SDS011;10074;52.018;4.726;2023-08-24T08:24:27;1.58;;;1.48;;
19826;SDS011;10074;52.018;4.726;2023-08-24T08:29:28;2.03;;;1.23;;
19826;SDS011;10074;52.018;4.726;2023-08-24T08:34:28;0.70;;;0.55;;
19826;SDS011;10074;52.018;4.726;2023-08-24T08:39:28;1.60;;;1.50;;
19826;SDS011;10074;52.018;4.726;2023-08-24T08:44:30;4.20;;;1.25;;
19826;SDS011;10074;52.018;4.726;2023-08-24T08:49:31;2.08;;;1.75;;
19826;SDS011;10074;52.018;4.726;2023-08-24T08:54:35;2.42;;;1.90;;
19826;SDS011;10074;52.018;4.726;2023-08-24T08:59:35;3.13;;;1.85;;
19826;SDS011;10074;52.018;4.726;2023-08-24T09:04:37;5.90;;;1.35;;
19826;SDS011;10074;52.018;4.726;2023-08-24T09:09:38;2.35;;;1.48;;
19826;SDS011;10074;52.018;4.726;2023-08-24T09:14:39;1.67;;;1.58;;
19826;SDS011;10074;52.018;4.726;2023-08-24T09:19:41;1.92;;;1.73;;
19826;SDS011;10074;52.018;4.726;2023-08-24T09:24:41;3.15;;;2.17;;
19826;SDS011;10074;52.018;4.726;2023-08-24T09:29:42;1.70;;;1.58;;
19826;SDS011;10074;52.018;4.726;2023-08-24T09:34:42;9.50;;;1.57;;
19826;SDS011;10074;52.018;4.726;2023-08-24T09:39:43;2.08;;;1.63;;
19826;SDS011;10074;52.018;4.726;2023-08-24T09:44:44;1.52;;;1.42;;
19826;SDS011;10074;52.018;4.726;2023-08-24T09:49:46;3.38;;;1.83;;
19826;SDS011;10074;52.018;4.726;2023-08-24T09:54:47;1.63;;;1.52;;
19826;SDS011;10074;52.018;4.726;2023-08-24T09:59:50;2.25;;;1.40;;
19826;SDS011;10074;52.018;4.726;2023-08-24T10:04:51;2.10;;;1.90;;
19826;SDS011;10074;52.018;4.726;2023-08-24T10:09:53;3.60;;;2.53;;
19826;SDS011;10074;52.018;4.726;2023-08-24T10:20:08;1.98;;;1.77;;
19826;SDS011;10074;52.018;4.726;2023-08-24T10:25:10;3.22;;;1.85;;
19826;SDS011;10074;52.018;4.726;2023-08-24T10:30:12;4.32;;;3.05;;
19826;SDS011;10074;52.018;4.726;2023-08-24T10:35:13;2.33;;;1.60;;
19826;SDS011;10074;52.018;4.726;2023-08-24T10:40:15;3.00;;;1.83;;
19826;SDS011;10074;52.018;4.726;2023-08-24T10:56:19;4.72;;;2.38;;
19826;SDS011;10074;52.018;4.726;2023-08-24T11:01:21;4.55;;;2.42;;
19826;SDS011;10074;52.018;4.726;2023-08-24T11:06:24;7.72;;;2.42;;
19826;SDS011;10074;52.018;4.726;2023-08-24T11:11:26;3.35;;;2.33;;
19826;SDS011;10074;52.018;4.726;2023-08-24T11:16:43;2.08;;;1.88;;
19826;SDS011;10074;52.018;4.726;2023-08-24T11:21:45;2.03;;;1.83;;
19826;SDS011;10074;52.018;4.726;2023-08-24T11:26:47;3.05;;;2.47;;
19826;SDS011;10074;52.018;4.726;2023-08-24T11:31:48;2.88;;;2.60;;
19826;SDS011;10074;52.018;4.726;2023-08-24T11:36:51;3.35;;;2.05;;
19826;SDS011;10074;52.018;4.726;2023-08-24T11:41:59;2.97;;;1.73;;
19826;SDS011;10074;52.018;4.726;2023-08-24T11:47:01;3.30;;;2.08;;
19826;SDS011;10074;52.018;4.726;2023-08-24T11:52:01;3.95;;;1.98;;
19826;SDS011;10074;52.018;4.726;2023-08-24T11:57:01;7.13;;;3.45;;
19826;SDS011;10074;52.018;4.726;2023-08-24T12:02:06;4.10;;;2.08;;
19826;SDS011;10074;52.018;4.726;2023-08-24T12:07:10;3.65;;;2.78;;
19826;SDS011;10074;52.018;4.726;2023-08-24T12:12:14;2.83;;;2.50;;
19826;SDS011;10074;52.018;4.726;2023-08-24T12:17:15;4.55;;;2.72;;
19826;SDS011;10074;52.018;4.726;2023-08-24T12:22:16;5.38;;;3.13;;
19826;SDS011;10074;52.018;4.726;2023-08-24T12:27:18;5.40;;;3.22;;
19826;SDS011;10074;52.018;4.726;2023-08-24T12:32:22;4.10;;;3.35;;
19826;SDS011;10074;52.018;4.726;2023-08-24T12:37:25;3.05;;;2.50;;
19826;SDS011;10074;52.018;4.726;2023-08-24T12:42:25;4.07;;;3.40;;
19826;SDS011;10074;52.018;4.726;2023-08-24T12:47:25;6.73;;;2.77;;
19826;SDS011;10074;52.018;4.726;2023-08-24T12:52:26;4.65;;;2.95;;
19826;SDS011;10074;52.018;4.726;2023-08-24T12:57:26;3.65;;;3.15;;
19826;SDS011;10074;52.018;4.726;2023-08-24T13:02:27;2.83;;;2.55;;
19826;SDS011;10074;52.018;4.726;2023-08-24T13:07:27;2.42;;;2.03;;
19826;SDS011;10074;52.018;4.726;2023-08-24T13:12:27;4.13;;;3.42;;
19826;SDS011;10074;52.018;4.726;2023-08-24T13:17:31;2.33;;;2.13;;
19826;SDS011;10074;52.018;4.726;2023-08-24T13:22:31;4.32;;;2.88;;
19826;SDS011;10074;52.018;4.726;2023-08-24T13:27:32;2.42;;;1.77;;
19826;SDS011;10074;52.018;4.726;2023-08-24T13:32:32;4.78;;;2.38;;
19826;SDS011;10074;52.018;4.726;2023-08-24T13:37:32;4.07;;;2.17;;
19826;SDS011;10074;52.018;4.726;2023-08-24T13:42:33;2.88;;;2.45;;
19826;SDS011;10074;52.018;4.726;2023-08-24T13:47:34;4.40;;;3.05;;
19826;SDS011;10074;52.018;4.726;2023-08-24T13:52:34;2.45;;;2.25;;
19826;SDS011;10074;52.018;4.726;2023-08-24T13:57:34;3.03;;;2.23;;
19826;SDS011;10074;52.018;4.726;2023-08-24T14:02:34;3.38;;;3.00;;
19826;SDS011;10074;52.018;4.726;2023-08-24T14:07:35;4.03;;;2.83;;
19826;SDS011;10074;52.018;4.726;2023-08-24T14:12:35;3.45;;;2.25;;
19826;SDS011;10074;52.018;4.726;2023-08-24T14:17:36;3.00;;;2.40;;
19826;SDS011;10074;52.018;4.726;2023-08-24T14:22:36;4.33;;;3.93;;
19826;SDS011;10074;52.018;4.726;2023-08-24T14:27:36;4.13;;;3.63;;
19826;SDS011;10074;52.018;4.726;2023-08-24T14:32:38;2.70;;;2.42;;
19826;SDS011;10074;52.018;4.726;2023-08-24T14:37:38;4.70;;;3.50;;
19826;SDS011;10074;52.018;4.726;2023-08-24T14:42:39;2.90;;;2.60;;
19826;SDS011;10074;52.018;4.726;2023-08-24T14:47:39;4.03;;;3.20;;
19826;SDS011;10074;52.018;4.726;2023-08-24T14:52:40;5.13;;;3.65;;
19826;SDS011;10074;52.018;4.726;2023-08-24T14:57:40;4.32;;;3.85;;
19826;SDS011;10074;52.018;4.726;2023-08-24T15:02:41;8.02;;;3.83;;
19826;SDS011;10074;52.018;4.726;2023-08-24T15:07:41;7.55;;;4.78;;
19826;SDS011;10074;52.018;4.726;2023-08-24T15:12:42;5.80;;;4.30;;
19826;SDS011;10074;52.018;4.726;2023-08-24T15:17:43;6.10;;;4.82;;
19826;SDS011;10074;52.018;4.726;2023-08-24T15:22:48;6.28;;;2.95;;
19826;SDS011;10074;52.018;4.726;2023-08-24T15:27:48;4.57;;;3.58;;
19826;SDS011;10074;52.018;4.726;2023-08-24T15:32:48;3.37;;;3.07;;
19826;SDS011;10074;52.018;4.726;2023-08-24T15:37:49;4.28;;;2.50;;
19826;SDS011;10074;52.018;4.726;2023-08-24T15:42:49;5.15;;;2.85;;
19826;SDS011;10074;52.018;4.726;2023-08-24T15:47:49;4.65;;;2.40;;
19826;SDS011;10074;52.018;4.726;2023-08-24T15:52:50;4.18;;;2.15;;
19826;SDS011;10074;52.018;4.726;2023-08-24T15:57:52;3.05;;;2.50;;
19826;SDS011;10074;52.018;4.726;2023-08-24T16:02:52;4.82;;;1.85;;
19826;SDS011;10074;52.018;4.726;2023-08-24T16:07:53;2.95;;;2.28;;
19826;SDS011;10074;52.018;4.726;2023-08-24T16:12:53;3.35;;;1.65;;
19826;SDS011;10074;52.018;4.726;2023-08-24T16:17:53;2.28;;;1.50;;
19826;SDS011;10074;52.018;4.726;2023-08-24T16:22:54;5.82;;;1.85;;
19826;SDS011;10074;52.018;4.726;2023-08-24T16:27:54;5.10;;;2.13;;
19826;SDS011;10074;52.018;4.726;2023-08-24T16:32:57;1.50;;;1.40;;
19826;SDS011;10074;52.018;4.726;2023-08-24T16:37:58;10.48;;;3.30;;
19826;SDS011;10074;52.018;4.726;2023-08-24T16:42:58;9.07;;;2.88;;
19826;SDS011;10074;52.018;4.726;2023-08-24T16:47:59;3.08;;;1.90;;
19826;SDS011;10074;52.018;4.726;2023-08-24T16:53:01;5.35;;;1.92;;
19826;SDS011;10074;52.018;4.726;2023-08-24T16:58:01;1.65;;;1.55;;
19826;SDS011;10074;52.018;4.726;2023-08-24T17:03:02;3.15;;;2.22;;
19826;SDS011;10074;52.018;4.726;2023-08-24T17:08:03;4.13;;;2.13;;
19826;SDS011;10074;52.018;4.726;2023-08-24T17:13:05;3.53;;;2.25;;
19826;SDS011;10074;52.018;4.726;2023-08-24T17:18:06;2.30;;;2.10;;
19826;SDS011;10074;52.018;4.726;2023-08-24T17:23:07;1.30;;;1.10;;
19826;SDS011;10074;52.018;4.726;2023-08-24T17:28:07;1.88;;;1.70;;
19826;SDS011;10074;52.018;4.726;2023-08-24T17:33:07;2.30;;;2.10;;
19826;SDS011;10074;52.018;4.726;2023-08-24T17:38:09;1.45;;;1.10;;
19826;SDS011;10074;52.018;4.726;2023-08-24T17:43:10;1.98;;;1.27;;
19826;SDS011;10074;52.018;4.726;2023-08-24T17:48:10;3.88;;;1.20;;
19826;SDS011;10074;52.018;4.726;2023-08-24T17:53:10;3.47;;;2.42;;
19826;SDS011;10074;52.018;4.726;2023-08-24T17:58:11;1.75;;;1.27;;
19826;SDS011;10074;52.018;4.726;2023-08-24T18:03:11;3.33;;;2.33;;
19826;SDS011;10074;52.018;4.726;2023-08-24T18:08:12;2.35;;;1.20;;
19826;SDS011;10074;52.018;4.726;2023-08-24T18:13:13;1.52;;;1.10;;
19826;SDS011;10074;52.018;4.726;2023-08-24T18:18:16;2.05;;;1.42;;
19826;SDS011;10074;52.018;4.726;2023-08-24T18:23:16;2.60;;;1.63;;
19826;SDS011;10074;52.018;4.726;2023-08-24T18:28:18;1.52;;;1.42;;
19826;SDS011;10074;52.018;4.726;2023-08-24T18:33:18;2.00;;;1.63;;
19826;SDS011;10074;52.018;4.726;2023-08-24T18:38:19;2.38;;;1.60;;
19826;SDS011;10074;52.018;4.726;2023-08-24T18:43:20;2.72;;;1.48;;
19826;SDS011;10074;52.018;4.726;2023-08-24T18:48:20;1.73;;;1.45;;
19826;SDS011;10074;52.018;4.726;2023-08-24T18:53:21;2.80;;;1.13;;
19826;SDS011;10074;52.018;4.726;2023-08-24T18:58:22;1.90;;;1.30;;
19826;SDS011;10074;52.018;4.726;2023-08-24T19:03:22;2.10;;;1.48;;
19826;SDS011;10074;52.018;4.726;2023-08-24T19:08:24;3.47;;;1.30;;
19826;SDS011;10074;52.018;4.726;2023-08-24T19:13:25;1.35;;;1.25;;
19826;SDS011;10074;52.018;4.726;2023-08-24T19:18:26;2.58;;;1.70;;
19826;SDS011;10074;52.018;4.726;2023-08-24T19:23:29;2.97;;;1.48;;
19826;SDS011;10074;52.018;4.726;2023-08-24T19:28:30;4.25;;;2.17;;
19826;SDS011;10074;52.018;4.726;2023-08-24T19:33:31;3.28;;;1.17;;
19826;SDS011;10074;52.018;4.726;2023-08-24T19:38:31;3.92;;;1.50;;
19826;SDS011;10074;52.018;4.726;2023-08-24T19:43:32;1.30;;;1.13;;
19826;SDS011;10074;52.018;4.726;2023-08-24T19:48:32;2.53;;;1.30;;
19826;SDS011;10074;52.018;4.726;2023-08-24T19:53:33;3.13;;;1.02;;
19826;SDS011;10074;52.018;4.726;2023-08-24T19:58:33;5.00;;;2.17;;
19826;SDS011;10074;52.018;4.726;2023-08-24T20:03:34;1.80;;;1.23;;
19826;SDS011;10074;52.018;4.726;2023-08-24T20:08:34;1.10;;;1.00;;
19826;SDS011;10074;52.018;4.726;2023-08-24T20:13:35;1.85;;;1.20;;
19826;SDS011;10074;52.018;4.726;2023-08-24T20:18:35;2.10;;;1.88;;
19826;SDS011;10074;52.018;4.726;2023-08-24T20:23:37;2.78;;;1.67;;
19826;SDS011;10074;52.018;4.726;2023-08-24T20:28:40;1.35;;;1.25;;
19826;SDS011;10074;52.018;4.726;2023-08-24T20:33:41;1.00;;;0.90;;
19826;SDS011;10074;52.018;4.726;2023-08-24T20:38:41;3.05;;;2.28;;
19826;SDS011;10074;52.018;4.726;2023-08-24T20:43:42;3.33;;;1.65;;
19826;SDS011;10074;52.018;4.726;2023-08-24T20:48:42;3.72;;;1.90;;
19826;SDS011;10074;52.018;4.726;2023-08-24T20:53:43;2.00;;;1.77;;
19826;SDS011;10074;52.018;4.726;2023-08-24T20:58:43;1.50;;;1.40;;
19826;SDS011;10074;52.018;4.726;2023-08-24T21:03:45;4.65;;;2.10;;
19826;SDS011;10074;52.018;4.726;2023-08-24T21:08:45;2.08;;;1.88;;
19826;SDS011;10074;52.018;4.726;2023-08-24T21:13:46;2.17;;;2.03;;
19826;SDS011;10074;52.018;4.726;2023-08-24T21:18:46;2.30;;;1.52;;
19826;SDS011;10074;52.018;4.726;2023-08-24T21:23:46;1.30;;;1.20;;
19826;SDS011;10074;52.018;4.726;2023-08-24T21:28:47;1.20;;;1.00;;
19826;SDS011;10074;52.018;4.726;2023-08-24T21:33:47;2.35;;;2.08;;
19826;SDS011;10074;52.018;4.726;2023-08-24T21:38:48;2.47;;;2.00;;
19826;SDS011;10074;52.018;4.726;2023-08-24T21:43:48;1.60;;;1.40;;
19826;SDS011;10074;52.018;4.726;2023-08-24T21:48:49;1.55;;;1.35;;
19826;SDS011;10074;52.018;4.726;2023-08-24T21:53:49;2.42;;;1.80;;
19826;SDS011;10074;52.018;4.726;2023-08-24T21:58:49;2.00;;;1.73;;
19826;SDS011;10074;52.018;4.726;2023-08-24T22:03:50;2.15;;;1.88;;
19826;SDS011;10074;52.018;4.726;2023-08-24T22:08:50;2.35;;;1.65;;
19826;SDS011;10074;52.018;4.726;2023-08-24T22:13:51;4.45;;;2.00;;
19826;SDS011;10074;52.018;4.726;2023-08-24T22:18:51;2.05;;;1.55;;
19826;SDS011;10074;52.018;4.726;2023-08-24T22:23:52;2.65;;;2.15;;
19826;SDS011;10074;52.018;4.726;2023-08-24T22:28:52;2.28;;;1.77;;
19826;SDS011;10074;52.018;4.726;2023-08-24T22:33:53;3.42;;;1.75;;
19826;SDS011;10074;52.018;4.726;2023-08-24T22:38:53;2.65;;;2.45;;
19826;SDS011;10074;52.018;4.726;2023-08-24T22:43:54;2.25;;;1.67;;
19826;SDS011;10074;52.018;4.726;2023-08-24T22:48:54;2.60;;;1.60;;
19826;SDS011;10074;52.018;4.726;2023-08-24T22:53:54;7.68;;;2.80;;
19826;SDS011;10074;52.018;4.726;2023-08-24T22:58:55;2.05;;;1.73;;
19826;SDS011;10074;52.018;4.726;2023-08-24T23:03:56;2.83;;;2.58;;
19826;SDS011;10074;52.018;4.726;2023-08-24T23:08:57;2.03;;;1.77;;
19826;SDS011;10074;52.018;4.726;2023-08-24T23:13:57;5.30;;;3.30;;
19826;SDS011;10074;52.018;4.726;2023-08-24T23:18:58;2.90;;;1.45;;
19826;SDS011;10074;52.018;4.726;2023-08-24T23:23:58;3.47;;;2.40;;
19826;SDS011;10074;52.018;4.726;2023-08-24T23:28:59;2.10;;;1.35;;
19826;SDS011;10074;52.018;4.726;2023-08-24T23:34:00;4.15;;;1.85;;
19826;SDS011;10074;52.018;4.726;2023-08-24T23:39:00;2.03;;;1.63;;
19826;SDS011;10074;52.018;4.726;2023-08-24T23:44:00;2.47;;;2.28;;
19826;SDS011;10074;52.018;4.726;2023-08-24T23:49:01;2.42;;;2.22;;
19826;SDS011;10074;52.018;4.726;2023-08-24T23:54:01;2.70;;;1.98;;
19826;SDS011;10074;52.018;4.726;2023-08-24T23:59:02;4.07;;;2.42;;
